Garrettsville, Ohio
Current Conditions -  °F | °C
As of 4:51 AM on Monday 22 Dec 2014 (Local Time) from KYNG Reporting Station
Scattered Clouds Scattered Clouds  
Wind Chill: 14°   Ceiling: Unl
Heat Index: 24°   Visibility: 10mi
Dew Point: 20°   Wind: 9mph
Humidity: 84%   Direction: 110°ESE
Pressure: 30.1"   Gusts: NA
Location:  41.28°N, 81.1°W
Report Text: KYNG 220951Z 11008KT 10SM SCT250 M04/M07 A3010 RMK AO2 SLP206 T10441067
Loading
Personal Weather Stations






























Interactive Weather Map New forecast layout! Learn more

10-Day Weather Forecast

Advertisements
Track Severe Weather on mobile